Wye Mills, MD (21679)

7:52 AM EDT on September 02, 2015 (GMT -0400)
Tuckahoe Neck | | Change Station
CLOSE
Current Station
Personal Weather Station
Location: Denton, MD
Elevation: 36 ft
Nearby Weather Stations

Elev 36 ft 38.83 °N, 75.91 °W | Updated 1 minute ago

Mostly Cloudy
Mostly Cloudy
71.5 °F
Feels Like 71.5 °F
N
0.0
Wind Variable Wind from West

Today
High -- | Low -- °F
--% Chance of Precip.
Yesterday
High -- | Low -- °F
Precip. -- in
6:32 AM 7:32 PM
Waning Gibbous, 81% visible
Pressure 30.07 in
Visibility 5.0 miles
Clouds Mostly Cloudy 20000 ft
Dew Point 71 °F
Humidity 97%
Rainfall 0.00 in
Snow Depth Not available.
UV 0 out of 12
Pollen 10.00 out of 12
Air Quality Not available.
Flu Activity Not available.
METAR KESN 021150Z 00000KT 5SM BR BKN200 24/24 A3007
Pressure 30.07 in
Visibility 5.0 miles
Clouds Mostly Cloudy 20000 ft
Dew Point 71 °F
Humidity 97%
Rainfall 0.00 in
Snow Depth Not available.
UV 0 out of 12
Pollen 10.00 out of 12
Air Quality Not available.
Flu Activity Not available.
METAR KESN 021150Z 00000KT 5SM BR BKN200 24/24 A3007
Nowcast | as of 6:47 am EDT on September 2, 2015

Areas of fog will slowly dissipate through mid morning. Visibilities near or below one half mile at times are possible. Motorists are urged to exercise caution for rapidly changing visibilities. Reduce speed, allow extra time to reach your destination, and use low beam headlights if you encounter fog.

×

10-Day Weather Forecast

×

Almanac

Astronomy

Sep. 02, 2015 Rise Set
Actual Time
Civil Twilight
Nautical Twilight
Astronomical Twilight
Moon
Length of Visible Light
Length of Day
Tomorrow will be .
, % of the Moon is Illuminated

Today's Extremes

State Highs State Lows

Community

WunderPhotos

Upload Photos

1,851,736 photos uploaded!

WunderBlogs® & News

Nearby

Air Quality

  Air Quality AQ Index Pollutant
Not available.

Snow Depth

Station Depth Elevation

Earthquake Activity

City Distance Mag. Time & Date
Minimum magnitude displayed is 2.5.

Coastal Water Temperatures

Place Temperature

Stations

Nearby Weather Stations

Station Location Temp. Windchill Dew Point Humidity Wind Precip. Elev Updated Type